Time;durP1;ratioP1;P1;durP2;ratioP2;P2;SDS_P1;SDS_P2;PMS_P1;PMS_P2;Temp;Humidity;BMP_temperature;BMP_pressure;BME280_temperature;BME280_humidity;BME280_pressure;Samples;Min_cycle;Max_cycle;Signal;HPM_P1;HPM_P2
2023/06/24 00:01:31;;;;;;;;;6.00;5.00;;;;;19.96;67.44;102196.22;5037416;28;45261;-67
2023/06/24 00:03:57;;;;;;;;;5.33;5.33;;;;;19.97;68.06;102212.19;5037193;28;45778;-68
2023/06/24 00:06:25;;;;;;;;;4.00;4.00;;;;;19.98;67.72;102210.38;5036554;28;46044;-70
2023/06/24 00:08:52;;;;;;;;;6.33;4.33;;;;;19.89;67.98;102200.91;5038852;28;45403;-70
2023/06/24 00:11:18;;;;;;;;;5.33;5.33;;;;;19.92;68.07;102216.81;5040686;28;45383;-70
2023/06/24 00:13:44;;;;;;;;;4.67;4.67;;;;;19.90;67.95;102207.16;5041017;28;45250;-70
2023/06/24 00:16:10;;;;;;;;;6.00;6.00;;;;;19.86;68.22;102210.88;5040333;28;47043;-70
2023/06/24 00:18:40;;;;;;;;;5.00;5.00;;;;;19.73;68.30;102191.72;5039872;28;45305;-70
2023/06/24 00:21:06;;;;;;;;;6.00;3.00;;;;;19.78;68.79;102200.41;5040471;28;45325;-70
2023/06/24 00:23:34;;;;;;;;;5.33;5.00;;;;;19.70;68.88;102190.03;5040289;28;45317;-70
2023/06/24 00:26:00;;;;;;;;;5.00;5.00;;;;;19.69;68.92;102187.41;5039960;28;46472;-71
2023/06/24 00:28:25;;;;;;;;;4.33;4.33;;;;;19.70;69.46;102192.69;5040116;28;45424;-70
2023/06/24 00:30:50;;;;;;;;;4.33;4.33;;;;;19.62;69.54;102189.44;5040366;28;45156;-70
2023/06/24 00:33:22;;;;;;;;;5.67;5.00;;;;;19.65;69.07;102198.22;5040074;28;45199;-70
2023/06/24 00:35:47;;;;;;;;;5.00;4.33;;;;;19.63;69.31;102200.09;5040017;28;46468;-70
2023/06/24 00:38:13;;;;;;;;;4.67;4.67;;;;;19.55;69.29;102193.28;5040073;28;45208;-70
2023/06/24 00:40:39;;;;;;;;;4.33;4.33;;;;;19.53;69.79;102192.47;5039861;28;45404;-70
2023/06/24 00:43:05;;;;;;;;;5.33;5.00;;;;;19.57;70.12;102202.09;5040360;28;45461;-70
2023/06/24 00:45:31;;;;;;;;;4.33;4.33;;;;;19.51;69.80;102199.69;5039910;28;47396;-70
2023/06/24 00:47:58;;;;;;;;;5.67;4.00;;;;;19.48;69.83;102193.50;5039950;28;45304;-70
2023/06/24 00:50:23;;;;;;;;;6.00;6.00;;;;;19.51;70.62;102213.03;5039313;28;45379;-70
2023/06/24 00:52:49;;;;;;;;;7.67;7.00;;;;;19.45;70.91;102201.63;5040152;28;45363;-70
2023/06/24 00:55:16;;;;;;;;;6.67;6.67;;;;;19.45;70.32;102206.97;5039805;28;46124;-70
2023/06/24 00:57:43;;;;;;;;;7.67;7.67;;;;;19.41;71.38;102202.66;5039942;28;45455;-70
2023/06/24 01:00:13;;;;;;;;;4.33;4.33;;;;;19.37;71.44;102194.81;5039467;28;45374;-70
2023/06/24 01:02:42;;;;;;;;;8.00;7.00;;;;;19.36;71.87;102201.09;5039955;28;45251;-71
2023/06/24 01:05:11;;;;;;;;;6.67;6.67;;;;;19.35;71.71;102208.25;5039369;28;47241;-70
2023/06/24 01:07:37;;;;;;;;;10.67;8.00;;;;;19.27;72.51;102208.53;5037852;28;45279;-70
2023/06/24 01:10:05;;;;;;;;;8.00;7.00;;;;;19.23;73.03;102209.56;5039011;28;45501;-70
2023/06/24 01:12:31;;;;;;;;;10.67;8.33;;;;;19.06;73.36;102198.59;5039959;28;45348;-70
2023/06/24 01:14:56;;;;;;;;;7.00;7.00;;;;;19.12;73.75;102212.59;5039322;28;46422;-70
2023/06/24 01:17:35;;;;;;;;;6.33;6.33;;;;;19.14;73.21;102207.22;5038223;28;45396;-70
2023/06/24 01:20:13;;;;;;;;;7.00;6.33;;;;;19.17;73.60;102199.09;5039343;28;45290;-70
2023/06/24 01:22:46;;;;;;;;;6.00;6.00;;;;;19.16;73.30;102197.34;5039686;28;45301;-70
2023/06/24 01:25:43;;;;;;;;;7.00;6.33;;;;;19.16;72.79;102193.81;5038828;28;45497;-70
2023/06/24 01:28:45;;;;;;;;;8.67;7.67;;;;;19.13;72.81;102195.66;5039248;28;45376;-70
2023/06/24 01:31:34;;;;;;;;;10.33;7.00;;;;;19.04;73.46;102204.00;5039572;28;45234;-70
2023/06/24 01:34:25;;;;;;;;;9.67;6.67;;;;;18.90;74.33;102195.59;5039585;28;45369;-71
2023/06/24 01:37:10;;;;;;;;;8.33;7.00;;;;;18.90;74.32;102196.47;5019246;28;46502;-71
2023/06/24 01:39:42;;;;;;;;;6.00;5.00;;;;;18.89;74.88;102197.38;5019377;28;45322;-70
2023/06/24 01:42:11;;;;;;;;;6.00;6.00;;;;;18.88;74.67;102184.09;5019338;28;45371;-70
2023/06/24 01:44:40;;;;;;;;;7.33;5.00;;;;;18.85;75.65;102202.84;5020294;28;45436;-70
2023/06/24 01:47:08;;;;;;;;;5.33;5.33;;;;;18.76;75.45;102190.69;5019179;28;45497;-70
2023/06/24 01:49:40;;;;;;;;;7.67;7.00;;;;;18.73;75.36;102193.47;5018949;28;45525;-70
2023/06/24 01:52:08;;;;;;;;;8.00;7.33;;;;;18.75;75.56;102204.97;5019076;28;45394;-70
2023/06/24 01:54:36;;;;;;;;;6.33;6.33;;;;;18.73;75.98;102191.66;5019279;28;45362;-70
2023/06/24 01:57:05;;;;;;;;;12.33;8.00;;;;;18.68;75.82;102187.44;5036546;28;46162;-70
2023/06/24 01:59:33;;;;;;;;;8.67;7.00;;;;;18.48;76.38;102161.41;5038083;28;45282;-70
2023/06/24 02:02:00;;;;;;;;;9.33;8.00;;;;;18.62;76.25;102185.84;5039007;28;45251;-70
2023/06/24 02:04:30;;;;;;;;;7.33;6.67;;;;;18.60;76.05;102195.66;5038701;28;45390;-70
2023/06/24 02:07:00;;;;;;;;;6.33;6.33;;;;;18.57;76.61;102195.78;5037876;28;45570;-70
2023/06/24 02:09:28;;;;;;;;;7.00;7.00;;;;;18.53;76.88;102200.34;5038731;28;45278;-70
2023/06/24 02:11:55;;;;;;;;;7.00;7.00;;;;;18.53;76.50;102202.13;5038687;28;45384;-70
2023/06/24 02:14:22;;;;;;;;;8.00;8.00;;;;;18.53;76.82;102199.47;5038698;28;45262;-70
2023/06/24 02:16:50;;;;;;;;;8.00;8.00;;;;;18.43;76.99;102190.91;5038287;28;46150;-70
2023/06/24 02:19:17;;;;;;;;;7.00;5.67;;;;;18.55;77.13;102203.81;5038405;28;45289;-70
2023/06/24 02:21:44;;;;;;;;;10.33;9.00;;;;;18.43;77.01;102183.78;5037967;28;45529;-70
2023/06/24 02:24:11;;;;;;;;;7.00;7.00;;;;;18.44;77.23;102189.97;5038505;28;45545;-70
2023/06/24 02:26:40;;;;;;;;;12.33;10.33;;;;;18.52;77.41;102197.75;5038181;28;46558;-70
2023/06/24 02:29:08;;;;;;;;;13.33;12.00;;;;;18.45;77.26;102189.06;5038071;28;45223;-70
2023/06/24 02:31:33;;;;;;;;;12.67;10.67;;;;;18.52;77.45;102200.41;5037435;28;45419;-70
2023/06/24 02:33:59;;;;;;;;;12.33;12.00;;;;;18.50;77.41;102200.47;5038555;28;45385;-70
2023/06/24 02:36:24;;;;;;;;;9.00;9.00;;;;;18.47;77.25;102195.19;5038321;28;46779;-70
2023/06/24 02:38:49;;;;;;;;;13.00;11.33;;;;;18.39;77.67;102187.44;5038173;28;45353;-70
2023/06/24 02:41:15;;;;;;;;;12.67;11.00;;;;;18.40;77.31;102185.66;5038103;28;45286;-70
2023/06/24 02:43:40;;;;;;;;;10.67;9.33;;;;;18.45;77.40;102202.38;5038451;28;45251;-70
2023/06/24 02:46:07;;;;;;;;;13.00;8.33;;;;;18.44;77.72;102205.97;5037598;28;47280;-69
2023/06/24 02:48:37;;;;;;;;;12.00;12.00;;;;;18.41;77.80;102204.28;5038177;28;45240;-70
2023/06/24 02:51:04;;;;;;;;;11.33;11.00;;;;;18.27;77.83;102187.88;5037901;28;45421;-70
2023/06/24 02:53:30;;;;;;;;;11.67;9.67;;;;;18.12;77.62;102164.34;5038278;28;45585;-70
2023/06/24 02:55:57;;;;;;;;;12.00;10.33;;;;;18.26;78.42;102200.31;5037361;28;46327;-70
2023/06/24 02:58:24;;;;;;;;;10.00;8.67;;;;;18.23;78.83;102199.53;5037545;28;45474;-70
2023/06/24 03:00:49;;;;;;;;;12.67;9.67;;;;;18.15;78.79;102185.56;5037963;28;45247;-70
2023/06/24 03:03:15;;;;;;;;;12.67;9.67;;;;;18.17;79.17;102191.75;5038157;28;45440;-71
2023/06/24 03:05:44;;;;;;;;;12.00;9.33;;;;;18.09;79.90;102183.97;5037294;28;45350;-70
2023/06/24 03:08:10;;;;;;;;;12.67;12.00;;;;;18.14;80.06;102195.38;5037760;28;45402;-70
2023/06/24 03:10:37;;;;;;;;;12.33;11.33;;;;;18.12;80.43;102194.53;5037428;28;45396;-70
2023/06/24 03:13:02;;;;;;;;;13.33;11.00;;;;;18.08;80.98;102195.53;5037875;28;45309;-69
2023/06/24 03:15:28;;;;;;;;;8.00;8.00;;;;;18.07;80.95;102200.00;5037560;28;45376;-70
2023/06/24 03:17:54;;;;;;;;;11.67;11.00;;;;;18.01;81.26;102186.88;5037721;28;45349;-69
2023/06/24 03:20:20;;;;;;;;;14.33;11.67;;;;;18.02;81.03;102185.97;5037212;28;45562;-70
2023/06/24 03:22:45;;;;;;;;;12.67;10.67;;;;;17.97;81.54;102187.88;5037832;28;45573;-69
2023/06/24 03:25:11;;;;;;;;;11.67;10.33;;;;;17.95;81.21;102184.41;5037618;28;46562;-70
2023/06/24 03:27:36;;;;;;;;;11.33;8.33;;;;;17.87;81.61;102179.25;5037174;28;45203;-70
2023/06/24 03:30:02;;;;;;;;;11.00;10.67;;;;;17.94;81.74;102185.31;5037579;28;45470;-70
2023/06/24 03:32:28;;;;;;;;;12.00;9.67;;;;;17.84;82.20;102176.69;5037777;28;45317;-70
2023/06/24 03:34:53;;;;;;;;;12.33;12.33;;;;;17.82;82.18;102173.22;5036843;28;45472;-70
2023/06/24 03:37:18;;;;;;;;;12.33;11.00;;;;;17.76;82.28;102165.38;5037399;28;45488;-70
2023/06/24 03:39:44;;;;;;;;;9.67;9.67;;;;;17.84;81.93;102183.81;5037422;28;45357;-70
2023/06/24 03:42:09;;;;;;;;;13.00;10.67;;;;;17.84;82.04;102186.50;5037489;28;45344;-70
2023/06/24 03:44:34;;;;;;;;;10.33;10.33;;;;;17.84;82.30;102197.16;5037252;28;46016;-70
2023/06/24 03:46:59;;;;;;;;;10.00;10.00;;;;;17.82;82.50;102198.97;5037289;28;45268;-70
2023/06/24 03:49:25;;;;;;;;;12.33;12.33;;;;;17.76;82.18;102202.69;5037591;28;45254;-70
2023/06/24 03:51:50;;;;;;;;;12.33;12.33;;;;;17.72;82.35;102193.94;5036972;28;45420;-69
2023/06/24 03:54:16;;;;;;;;;10.33;10.33;;;;;17.75;82.45;102190.31;5037222;28;45382;-70
2023/06/24 03:56:41;;;;;;;;;12.67;8.67;;;;;17.77;83.31;102187.59;5037310;28;45376;-70
2023/06/24 03:59:07;;;;;;;;;12.00;8.00;;;;;17.71;83.09;102180.66;5037278;28;45300;-71
2023/06/24 04:01:33;;;;;;;;;12.00;11.67;;;;;17.68;82.56;102175.41;5037442;28;45384;-70
2023/06/24 04:03:58;;;;;;;;;11.00;9.33;;;;;17.68;82.19;102186.94;5036658;28;45654;-71
2023/06/24 04:06:24;;;;;;;;;10.33;8.33;;;;;17.66;82.77;102180.78;5036962;28;45313;-72
2023/06/24 04:08:51;;;;;;;;;12.67;12.00;;;;;17.68;83.21;102200.25;5037234;28;45357;-70
2023/06/24 04:11:17;;;;;;;;;13.33;13.33;;;;;17.66;83.52;102195.88;5037215;28;45309;-71
2023/06/24 04:13:42;;;;;;;;;12.67;12.67;;;;;17.57;83.29;102181.94;5036995;28;45240;-70
2023/06/24 04:16:08;;;;;;;;;12.00;11.00;;;;;17.61;83.38;102201.34;5036819;28;45178;-71
2023/06/24 04:18:34;;;;;;;;;17.00;12.67;;;;;17.61;83.65;102201.34;5036992;28;45349;-70
2023/06/24 04:20:59;;;;;;;;;17.67;10.67;;;;;17.63;83.24;102203.97;5036952;28;45412;-71
2023/06/24 04:23:24;;;;;;;;;14.67;13.00;;;;;17.65;83.68;102207.47;5036665;28;46949;-71
2023/06/24 04:25:50;;;;;;;;;9.67;9.67;;;;;17.63;83.79;102211.97;5036864;28;45396;-70
2023/06/24 04:28:15;;;;;;;;;13.67;10.67;;;;;17.63;83.61;102210.19;5036615;28;45345;-70
2023/06/24 04:30:40;;;;;;;;;14.33;14.33;;;;;17.60;83.51;102206.72;5037012;28;45308;-70
2023/06/24 04:33:06;;;;;;;;;15.00;12.00;;;;;17.58;83.61;102204.09;5036591;28;46510;-70
2023/06/24 04:35:31;;;;;;;;;12.67;12.00;;;;;17.63;83.89;102217.28;5036484;28;45611;-70
2023/06/24 04:37:57;;;;;;;;;15.00;14.33;;;;;17.43;83.66;102177.91;5036992;28;45346;-70
2023/06/24 04:40:22;;;;;;;;;12.67;10.67;;;;;17.62;83.26;102205.78;5036881;28;45444;-70
2023/06/24 04:42:47;;;;;;;;;18.00;12.67;;;;;17.60;84.02;102201.41;5036328;28;46405;-69
2023/06/24 04:45:13;;;;;;;;;13.33;11.00;;;;;17.65;83.60;102203.00;5036660;28;45309;-70
2023/06/24 04:47:38;;;;;;;;;13.00;11.67;;;;;17.62;84.08;102195.13;5036675;28;45211;-70
2023/06/24 04:50:04;;;;;;;;;13.00;11.33;;;;;17.64;84.34;102203.94;5037068;28;45200;-70
2023/06/24 04:52:29;;;;;;;;;15.67;11.67;;;;;17.64;84.23;102203.94;5036000;28;45331;-69
2023/06/24 04:54:55;;;;;;;;;13.33;12.67;;;;;17.69;84.00;102209.16;5038786;28;45400;-69
2023/06/24 04:57:24;;;;;;;;;9.33;6.33;;;;;17.71;83.24;102207.28;5040043;28;45353;-69
2023/06/24 04:59:50;;;;;;;;;19.33;13.67;;;;;17.71;83.33;102194.84;5040117;28;45314;-70
2023/06/24 05:02:15;;;;;;;;;14.00;12.67;;;;;17.74;82.92;102192.06;5039663;28;47144;-69
2023/06/24 05:04:41;;;;;;;;;12.33;12.00;;;;;17.83;83.11;102204.25;5039528;28;45301;-71
2023/06/24 05:07:06;;;;;;;;;13.67;11.00;;;;;17.83;82.68;102192.72;5039682;28;45526;-69
2023/06/24 05:09:32;;;;;;;;;14.00;13.33;;;;;17.95;82.28;102204.84;5039880;28;45250;-70
2023/06/24 05:11:57;;;;;;;;;13.33;12.00;;;;;17.94;82.62;102198.66;5039536;28;46037;-70
2023/06/24 05:14:22;;;;;;;;;13.33;11.33;;;;;17.89;81.94;102192.53;5039721;28;45354;-69
2023/06/24 05:16:47;;;;;;;;;13.00;13.00;;;;;17.95;82.60;102208.41;5039643;28;45869;-69
2023/06/24 05:19:13;;;;;;;;;14.00;12.67;;;;;17.88;82.31;102206.81;5039830;28;45323;-69
2023/06/24 05:21:38;;;;;;;;;15.33;14.33;;;;;18.03;82.50;102214.34;5039384;28;46402;-69
2023/06/24 05:24:04;;;;;;;;;14.67;12.67;;;;;18.05;82.09;102214.28;5039314;28;45568;-69
2023/06/24 05:26:29;;;;;;;;;12.00;11.33;;;;;18.07;82.38;102223.13;5039705;28;45275;-71
2023/06/24 05:28:55;;;;;;;;;15.00;13.67;;;;;17.88;83.02;102186.34;5039363;28;45448;-71
2023/06/24 05:31:20;;;;;;;;;15.33;13.33;;;;;18.08;83.50;102220.44;5039414;28;45452;-72
2023/06/24 05:33:46;;;;;;;;;13.33;11.67;;;;;18.13;82.93;102227.41;5039347;28;45326;-71
2023/06/24 05:36:11;;;;;;;;;18.00;13.67;;;;;18.05;82.58;102212.53;5039292;28;45306;-72
2023/06/24 05:38:37;;;;;;;;;16.00;14.00;;;;;18.15;83.05;102220.22;5039400;28;45496;-71
2023/06/24 05:41:02;;;;;;;;;16.33;14.33;;;;;18.13;83.59;102211.41;5038914;28;46451;-69
2023/06/24 05:43:28;;;;;;;;;14.33;12.00;;;;;18.21;83.38;102225.38;5039016;28;45424;-70
2023/06/24 05:45:53;;;;;;;;;15.00;13.33;;;;;18.18;83.54;102214.78;5039185;28;45241;-71
2023/06/24 05:48:18;;;;;;;;;14.67;12.00;;;;;18.30;84.22;102230.44;5039460;28;45377;-69
2023/06/24 05:50:44;;;;;;;;;15.33;13.00;;;;;18.34;83.86;102236.53;5038606;28;45493;-69
2023/06/24 05:53:09;;;;;;;;;14.33;13.33;;;;;18.31;83.99;102226.81;5038950;28;45414;-70
2023/06/24 05:55:34;;;;;;;;;13.67;12.67;;;;;18.34;84.34;102224.09;5039135;28;45645;-70
2023/06/24 05:58:00;;;;;;;;;13.00;11.00;;;;;18.43;83.40;102230.91;5039003;28;45626;-70
2023/06/24 06:00:25;;;;;;;;;18.67;17.00;;;;;18.59;83.34;102229.50;5054089;28;46523;-69
2023/06/24 06:02:50;;;;;;;;;15.00;13.33;;;;;18.72;82.88;102229.97;5038798;28;45385;-70
2023/06/24 06:05:16;;;;;;;;;12.67;12.67;;;;;18.74;82.34;102222.75;5037717;28;45405;-70
2023/06/24 06:07:42;;;;;;;;;17.00;16.33;;;;;18.82;82.66;102230.53;5038956;28;45449;-70
2023/06/24 06:10:08;;;;;;;;;10.67;9.00;;;;;18.85;83.09;102232.19;5038650;28;46291;-69
2023/06/24 06:12:34;;;;;;;;;14.33;11.33;;;;;18.85;83.20;102232.19;5038557;28;45234;-70
2023/06/24 06:14:59;;;;;;;;;12.67;12.33;;;;;18.86;83.77;102225.94;5038685;28;45689;-70
2023/06/24 06:17:24;;;;;;;;;11.67;10.67;;;;;18.89;84.38;102228.53;5038962;28;45210;-70
2023/06/24 06:19:50;;;;;;;;;15.00;14.67;;;;;18.93;83.55;102217.69;5038668;28;45337;-70
2023/06/24 06:22:15;;;;;;;;;15.33;15.33;;;;;19.10;83.76;102224.28;5038460;28;45477;-70
2023/06/24 06:24:40;;;;;;;;;18.67;12.67;;;;;19.35;81.42;102218.91;5038564;28;45400;-72
2023/06/24 06:27:10;;;;;;;;;16.00;13.67;;;;;19.34;82.81;102222.50;5038790;28;45426;-70
2023/06/24 06:29:35;;;;;;;;;15.33;12.33;;;;;19.32;82.49;102229.72;5037951;28;46267;-70
2023/06/24 06:32:00;;;;;;;;;16.33;15.00;;;;;19.33;83.71;102222.56;5038443;28;45302;-69
2023/06/24 06:34:26;;;;;;;;;15.00;12.67;;;;;19.34;83.97;102232.34;5038516;28;45365;-70
2023/06/24 06:36:51;;;;;;;;;11.33;9.00;;;;;19.36;83.56;102231.34;5038483;28;45461;-70
2023/06/24 06:39:16;;;;;;;;;12.33;12.00;;;;;19.40;83.89;102226.75;5038187;28;45367;-70
2023/06/24 06:41:42;;;;;;;;;18.00;14.33;;;;;19.43;83.99;102232.00;5038313;28;45429;-70
2023/06/24 06:44:07;;;;;;;;;16.00;12.00;;;;;19.27;83.92;102191.59;5038414;28;45324;-71
2023/06/24 06:46:32;;;;;;;;;11.33;11.33;;;;;19.46;84.44;102227.44;5038374;28;45294;-72
2023/06/24 06:48:59;;;;;;;;;52.33;42.33;;;;;19.52;84.69;102222.78;5037897;28;46655;-70
2023/06/24 06:51:25;;;;;;;;;11.00;10.33;;;;;19.57;84.16;102227.03;5037955;28;45300;-69
2023/06/24 06:53:51;;;;;;;;;10.33;10.33;;;;;19.63;83.86;102228.59;5038202;28;45459;-70
2023/06/24 06:56:24;;;;;;;;;11.67;10.67;;;;;19.64;83.21;102225.84;5038396;28;45349;-70
2023/06/24 06:58:50;;;;;;;;;11.67;9.00;;;;;19.70;83.37;102227.44;5037800;28;47173;-71
2023/06/24 07:01:15;;;;;;;;;64.67;48.67;;;;;19.75;83.56;102236.16;5037880;28;45192;-70
2023/06/24 07:03:40;;;;;;;;;11.00;10.33;;;;;19.67;82.37;102200.84;5038189;28;45268;-72
2023/06/24 07:06:06;;;;;;;;;9.33;8.00;;;;;19.80;81.94;102217.31;5037961;28;45541;-70
2023/06/24 07:08:31;;;;;;;;;10.67;8.00;;;;;19.90;82.26;102233.88;5037832;28;46234;-70
2023/06/24 07:10:56;;;;;;;;;10.33;8.00;;;;;20.13;82.70;102227.66;5037971;28;45374;-70
2023/06/24 07:13:22;;;;;;;;;7.00;7.00;;;;;20.90;78.79;102216.50;5037935;28;45279;-72
2023/06/24 07:15:47;;;;;;;;;8.00;7.00;;;;;22.09;73.73;102224.56;5038260;28;45424;-72
2023/06/24 07:18:12;;;;;;;;;8.00;7.00;;;;;22.33;70.91;102227.03;5037210;28;46719;-70
2023/06/24 07:20:38;;;;;;;;;8.33;7.00;;;;;22.38;69.41;102219.63;5037606;28;45176;-70
2023/06/24 07:23:04;;;;;;;;;9.00;9.00;;;;;22.49;68.87;102228.03;5037891;28;45381;-70
2023/06/24 07:25:30;;;;;;;;;7.67;7.67;;;;;22.26;69.45;102237.16;5037604;28;45248;-70
2023/06/24 07:27:55;;;;;;;;;9.00;9.00;;;;;22.04;70.68;102226.59;5037516;28;46617;-69
2023/06/24 07:30:20;;;;;;;;;7.00;6.00;;;;;22.06;70.92;102232.75;5037159;28;45448;-69
2023/06/24 07:32:46;;;;;;;;;8.67;7.00;;;;;22.00;71.30;102231.25;5037576;28;45420;-70
2023/06/24 07:35:13;;;;;;;;;8.00;8.00;;;;;22.09;71.04;102233.47;5037953;28;45321;-70
2023/06/24 07:37:38;;;;;;;;;9.67;8.00;;;;;22.51;69.19;102233.31;5037342;28;46231;-70
2023/06/24 07:40:05;;;;;;;;;10.33;7.67;;;;;22.34;69.38;102226.09;5037374;28;45235;-69
2023/06/24 07:42:30;;;;;;;;;7.67;6.33;;;;;22.15;69.43;102226.09;5037420;28;45290;-72
2023/06/24 07:44:56;;;;;;;;;9.00;7.00;;;;;21.81;70.72;102199.03;5037448;28;45424;-72
2023/06/24 07:47:21;;;;;;;;;7.33;7.33;;;;;21.85;70.79;102240.88;5037345;28;45462;-72
2023/06/24 07:49:47;;;;;;;;;9.00;8.00;;;;;21.76;71.03;102227.03;5037124;28;45207;-70
2023/06/24 07:52:12;;;;;;;;;5.00;5.00;;;;;21.64;71.49;102217.72;5037222;28;45556;-72
2023/06/24 07:54:37;;;;;;;;;7.00;5.67;;;;;21.64;71.36;102223.09;5037388;28;45271;-69
2023/06/24 07:57:03;;;;;;;;;6.67;6.67;;;;;21.62;71.71;102220.47;5037001;28;45609;-69
2023/06/24 07:59:29;;;;;;;;;7.67;6.00;;;;;21.62;72.32;102227.66;5037277;28;45258;-70
2023/06/24 08:01:54;;;;;;;;;8.00;6.00;;;;;21.72;72.29;102228.97;5037132;28;45392;-70
2023/06/24 08:04:19;;;;;;;;;6.67;6.67;;;;;21.73;70.69;102230.72;5037272;28;45435;-70
2023/06/24 08:06:45;;;;;;;;;6.00;6.00;;;;;21.53;70.62;102194.09;5036726;28;46630;-72
2023/06/24 08:09:10;;;;;;;;;5.67;5.67;;;;;21.50;70.69;102187.03;5036931;28;45246;-71
2023/06/24 08:11:36;;;;;;;;;5.67;5.67;;;;;21.77;71.17;102218.03;5037332;28;45765;-69
2023/06/24 08:14:01;;;;;;;;;6.33;6.33;;;;;21.92;70.59;102204.78;5037197;28;45308;-70
2023/06/24 08:16:27;;;;;;;;;8.33;5.33;;;;;22.16;69.16;102217.09;5036720;28;47475;-69
2023/06/24 08:18:53;;;;;;;;;5.00;5.00;;;;;22.12;69.32;102208.34;5036964;28;45396;-70
2023/06/24 08:21:18;;;;;;;;;7.67;7.67;;;;;22.02;68.56;102210.56;5036756;28;45448;-70
2023/06/24 08:23:44;;;;;;;;;6.33;6.33;;;;;22.04;67.94;102219.41;5037492;28;45338;-69
2023/06/24 08:26:09;;;;;;;;;9.33;8.33;;;;;21.99;68.39;102213.41;5036619;28;46706;-69
2023/06/24 08:28:35;;;;;;;;;8.33;6.00;;;;;21.97;68.79;102209.91;5036942;28;45275;-70
2023/06/24 08:31:01;;;;;;;;;6.00;5.67;;;;;22.02;69.02;102215.94;5040349;28;45448;-70
2023/06/24 08:33:26;;;;;;;;;5.33;5.33;;;;;22.07;68.69;102204.97;5040251;28;45586;-69
2023/06/24 08:35:51;;;;;;;;;7.00;7.00;;;;;22.09;69.00;102205.81;5042351;28;45483;-69
2023/06/24 08:38:17;;;;;;;;;4.67;4.67;;;;;22.12;68.61;102197.59;5039959;28;45263;-69
2023/06/24 08:40:44;;;;;;;;;7.00;4.00;;;;;22.33;66.92;102201.06;5040060;28;45241;-69
2023/06/24 08:43:09;;;;;;;;;5.33;5.33;;;;;22.45;66.13;102204.09;5040435;28;45440;-71
2023/06/24 08:45:35;;;;;;;;;6.00;5.00;;;;;22.60;66.76;102204.19;5038399;28;45370;-70
2023/06/24 08:48:02;;;;;;;;;6.67;5.67;;;;;22.60;66.51;102203.34;5039797;28;45366;-69
2023/06/24 08:50:34;;;;;;;;;4.67;4.67;;;;;22.64;66.50;102204.03;5039977;28;45373;-69
2023/06/24 08:53:03;;;;;;;;;10.00;10.00;;;;;22.65;65.98;102205.78;5040041;28;45321;-69
2023/06/24 08:55:32;;;;;;;;;7.00;5.33;;;;;22.65;65.60;102213.84;5039530;28;46285;-69
2023/06/24 08:57:57;;;;;;;;;5.33;5.33;;;;;22.68;66.24;102206.47;5039668;28;45258;-69
2023/06/24 09:00:24;;;;;;;;;7.00;7.00;;;;;22.80;65.34;102209.50;5039907;28;45400;-69
2023/06/24 09:02:49;;;;;;;;;7.67;5.00;;;;;22.75;65.21;102202.53;5038766;28;45478;-69
2023/06/24 09:05:15;;;;;;;;;6.00;5.00;;;;;22.75;65.47;102207.91;5038772;28;45297;-69
2023/06/24 09:07:40;;;;;;;;;6.33;4.00;;;;;22.74;64.89;102198.13;5038728;28;45460;-68
2023/06/24 09:10:06;;;;;;;;;7.00;7.00;;;;;23.22;64.17;102195.69;5038099;28;45640;-69
2023/06/24 09:12:32;;;;;;;;;5.67;4.00;;;;;23.59;61.81;102195.53;5038482;28;45540;-70
2023/06/24 09:14:58;;;;;;;;;3.00;3.00;;;;;23.69;60.01;102190.50;5038176;28;45529;-68
2023/06/24 09:17:24;;;;;;;;;3.33;3.33;;;;;23.65;61.48;102187.97;5038071;28;45539;-70
2023/06/24 09:19:50;;;;;;;;;6.00;4.33;;;;;23.53;57.95;102177.91;5039586;28;45697;-70
2023/06/24 09:22:18;;;;;;;;;3.33;3.33;;;;;23.62;58.05;102204.28;5038833;28;45418;-66
2023/06/24 09:24:48;;;;;;;;;6.00;6.00;;;;;23.63;57.33;102179.13;5038976;28;46667;-66
2023/06/24 09:27:15;;;;;;;;;3.00;3.00;;;;;23.87;56.40;102192.19;5038945;28;45412;-67
2023/06/24 09:29:42;;;;;;;;;3.67;3.00;;;;;24.04;55.76;102191.25;5038687;28;45433;-66
2023/06/24 09:32:08;;;;;;;;;4.00;4.00;;;;;24.97;55.53;102189.41;5039198;28;45370;-67
2023/06/24 09:34:34;;;;;;;;;2.67;2.67;;;;;27.42;50.35;102202.25;5038855;28;46533;-67
2023/06/24 09:37:00;;;;;;;;;3.33;3.00;;;;;29.83;46.47;102189.44;5039112;28;45413;-66
2023/06/24 09:39:30;;;;;;;;;7.00;4.00;;;;;32.46;41.08;102188.34;5038926;28;45385;-66
2023/06/24 09:42:00;;;;;;;;;3.00;3.00;;;;;35.05;40.53;102187.38;5038379;28;45612;-66
2023/06/24 09:44:27;;;;;;;;;4.00;4.00;;;;;37.18;33.34;102177.00;5038513;28;46288;-67
2023/06/24 09:46:53;;;;;;;;;5.00;5.00;;;;;38.94;31.79;102185.69;5038950;28;45428;-67
2023/06/24 09:49:18;;;;;;;;;3.67;3.67;;;;;40.46;31.93;102179.47;5038739;28;45405;-66
2023/06/24 09:51:47;;;;;;;;;3.00;1.67;;;;;41.87;27.75;102183.06;5038668;28;45448;-67
2023/06/24 09:54:14;;;;;;;;;3.00;3.00;;;;;43.05;24.02;102181.59;5038393;28;45562;-66
2023/06/24 09:56:44;;;;;;;;;1.00;1.00;;;;;44.24;27.33;102193.22;5038762;28;45399;-66
2023/06/24 09:59:12;;;;;;;;;2.00;2.00;;;;;45.25;22.12;102189.47;5037698;28;45574;-66
2023/06/24 10:01:39;;;;;;;;;2.00;2.00;;;;;46.14;20.63;102183.28;5037773;28;45336;-66
2023/06/24 10:04:06;;;;;;;;;1.00;1.00;;;;;46.89;20.08;102179.81;5037553;28;46519;-65
2023/06/24 10:06:33;;;;;;;;;2.33;2.33;;;;;47.80;21.08;102180.31;5037770;28;45389;-65
2023/06/24 10:08:59;;;;;;;;;0.00;0.00;;;;;48.32;19.41;102176.44;5037411;28;45448;-66
2023/06/24 10:11:24;;;;;;;;;2.00;2.00;;;;;48.74;18.10;102170.38;5036642;28;45469;-64
2023/06/24 10:13:50;;;;;;;;;1.00;1.00;;;;;49.28;17.97;102173.38;5037633;28;47097;-63
2023/06/24 10:16:16;;;;;;;;;2.25;2.25;;;;;49.83;18.49;102162.16;5037337;28;45377;-66
2023/06/24 10:18:44;;;;;;;;;2.00;2.00;;;;;50.26;18.39;102167.88;5037837;28;45458;-66
2023/06/24 10:21:10;;;;;;;;;0.50;0.50;;;;;50.62;18.57;102160.56;5037835;28;45624;-65
2023/06/24 10:23:38;;;;;;;;;2.00;2.00;;;;;50.95;16.90;102175.31;5037354;28;46426;-64
2023/06/24 10:26:07;;;;;;;;;0.00;0.00;;;;;51.06;15.96;102165.00;5037186;28;45424;-64
2023/06/24 10:29:05;;;;;;;;;1.00;1.00;;;;;51.11;18.23;102164.16;5036787;28;45522;-67
2023/06/24 10:31:39;;;;;;;;;2.00;2.00;;;;;51.13;15.27;102156.31;5037321;28;45526;-67
2023/06/24 10:34:24;;;;;;;;;0.50;0.50;;;;;51.05;16.64;102146.47;5036801;28;45999;-67
2023/06/24 10:37:03;;;;;;;;;0.00;0.00;;;;;51.06;16.57;102142.53;5036846;28;45378;-66
2023/06/24 10:39:39;;;;;;;;;28.00;25.00;;;;;51.02;16.89;102136.66;5036638;28;45377;-67
2023/06/24 10:42:23;;;;;;;;;1.25;1.25;;;;;50.95;17.28;102140.78;5037091;28;45424;-66
2023/06/24 10:44:49;;;;;;;;;2.00;1.00;;;;;50.84;15.44;102129.53;5036709;28;45475;-64
2023/06/24 10:47:15;;;;;;;;;0.00;0.00;;;;;50.64;15.65;102133.09;5036542;28;46211;-64
2023/06/24 10:49:40;;;;;;;;;2.75;1.50;;;;;50.74;15.11;102126.69;5036872;28;45332;-64
2023/06/24 10:52:12;;;;;;;;;1.00;1.00;;;;;50.82;17.24;102134.59;5036265;28;45436;-64
2023/06/24 10:54:38;;;;;;;;;1.00;1.00;;;;;50.61;15.64;102125.19;5035987;28;46471;-64
2023/06/24 10:57:08;;;;;;;;;2.00;2.00;;;;;50.23;15.66;102118.78;5036728;28;45964;-64
2023/06/24 10:59:46;;;;;;;;;0.00;0.00;;;;;49.82;16.58;102115.69;5036579;28;45373;-64
2023/06/24 11:02:16;;;;;;;;;0.00;0.00;;;;;49.04;15.56;102113.19;5036313;28;45416;-67
2023/06/24 11:04:54;;;;;;;;;0.50;0.50;;;;;48.00;15.86;102116.41;5036519;28;46011;-67
2023/06/24 11:07:21;;;;;;;;;1.25;0.50;;;;;46.86;15.98;102112.56;5035672;28;45377;-66
2023/06/24 11:09:55;;;;;;;;;1.00;1.00;;;;;45.52;17.06;102107.34;5036211;28;45459;-67
2023/06/24 11:12:25;;;;;;;;;0.75;0.75;;;;;44.09;17.38;102103.81;5036592;28;45441;-66
2023/06/24 11:14:51;;;;;;;;;0.00;0.00;;;;;42.87;19.29;102101.91;5036068;28;46195;-66
2023/06/24 11:17:19;;;;;;;;;0.00;0.00;;;;;41.52;19.36;102091.88;5036138;28;45393;-66
2023/06/24 11:19:44;;;;;;;;;1.00;1.00;;;;;40.34;21.03;102095.47;5036468;28;45331;-66